sensor_id;sensor_type;location;lat;lon;timestamp;P1;durP1;ratioP1;P2;durP2;ratioP2
60344;SDS011;46188;52.324;8.032;2023-03-23T00:02:13;13.23;;;7.80;;
60344;SDS011;46188;52.324;8.032;2023-03-23T00:04:39;8.73;;;7.82;;
60344;SDS011;46188;52.324;8.032;2023-03-23T00:07:04;12.35;;;8.05;;
60344;SDS011;46188;52.324;8.032;2023-03-23T00:09:29;13.15;;;7.93;;
60344;SDS011;46188;52.324;8.032;2023-03-23T00:11:59;8.40;;;7.07;;
60344;SDS011;46188;52.324;8.032;2023-03-23T00:14:31;10.10;;;7.35;;
60344;SDS011;46188;52.324;8.032;2023-03-23T00:17:06;10.90;;;7.78;;
60344;SDS011;46188;52.324;8.032;2023-03-23T00:19:36;11.25;;;7.88;;
60344;SDS011;46188;52.324;8.032;2023-03-23T00:22:11;10.75;;;8.63;;
60344;SDS011;46188;52.324;8.032;2023-03-23T00:24:37;10.52;;;8.30;;
60344;SDS011;46188;52.324;8.032;2023-03-23T00:27:02;12.30;;;7.82;;
60344;SDS011;46188;52.324;8.032;2023-03-23T00:29:28;9.07;;;7.68;;
60344;SDS011;46188;52.324;8.032;2023-03-23T00:31:53;12.00;;;8.23;;
60344;SDS011;46188;52.324;8.032;2023-03-23T00:34:19;11.55;;;7.93;;
60344;SDS011;46188;52.324;8.032;2023-03-23T00:36:47;9.50;;;7.60;;
60344;SDS011;46188;52.324;8.032;2023-03-23T00:39:15;10.07;;;8.15;;
60344;SDS011;46188;52.324;8.032;2023-03-23T00:41:43;12.77;;;7.53;;
60344;SDS011;46188;52.324;8.032;2023-03-23T00:44:08;13.15;;;7.80;;
60344;SDS011;46188;52.324;8.032;2023-03-23T00:46:34;12.10;;;8.02;;
60344;SDS011;46188;52.324;8.032;2023-03-23T00:48:59;9.18;;;6.30;;
60344;SDS011;46188;52.324;8.032;2023-03-23T00:51:25;9.95;;;7.93;;
60344;SDS011;46188;52.324;8.032;2023-03-23T00:53:50;11.73;;;8.05;;
60344;SDS011;46188;52.324;8.032;2023-03-23T00:56:16;11.50;;;7.88;;
60344;SDS011;46188;52.324;8.032;2023-03-23T00:58:41;9.18;;;7.28;;
60344;SDS011;46188;52.324;8.032;2023-03-23T01:01:07;11.18;;;7.15;;
60344;SDS011;46188;52.324;8.032;2023-03-23T01:03:32;8.40;;;7.45;;
60344;SDS011;46188;52.324;8.032;2023-03-23T01:06:03;9.32;;;7.07;;
60344;SDS011;46188;52.324;8.032;2023-03-23T01:08:30;10.30;;;7.90;;
60344;SDS011;46188;52.324;8.032;2023-03-23T01:11:01;10.02;;;6.93;;
60344;SDS011;46188;52.324;8.032;2023-03-23T01:13:28;9.00;;;7.38;;
60344;SDS011;46188;52.324;8.032;2023-03-23T01:15:53;10.75;;;7.18;;
60344;SDS011;46188;52.324;8.032;2023-03-23T01:18:19;14.35;;;7.78;;
60344;SDS011;46188;52.324;8.032;2023-03-23T01:20:44;12.68;;;7.60;;
60344;SDS011;46188;52.324;8.032;2023-03-23T01:23:09;10.82;;;6.90;;
60344;SDS011;46188;52.324;8.032;2023-03-23T01:25:35;7.30;;;5.93;;
60344;SDS011;46188;52.324;8.032;2023-03-23T01:28:01;9.75;;;7.57;;
60344;SDS011;46188;52.324;8.032;2023-03-23T01:30:27;10.93;;;6.35;;
60344;SDS011;46188;52.324;8.032;2023-03-23T01:32:52;8.77;;;6.03;;
60344;SDS011;46188;52.324;8.032;2023-03-23T01:35:18;7.93;;;6.03;;
60344;SDS011;46188;52.324;8.032;2023-03-23T01:37:44;8.88;;;6.07;;
60344;SDS011;46188;52.324;8.032;2023-03-23T01:40:09;6.90;;;5.97;;
60344;SDS011;46188;52.324;8.032;2023-03-23T01:42:36;8.30;;;5.57;;
60344;SDS011;46188;52.324;8.032;2023-03-23T01:50:42;9.00;;;5.10;;
60344;SDS011;46188;52.324;8.032;2023-03-23T01:53:14;10.25;;;5.10;;
60344;SDS011;46188;52.324;8.032;2023-03-23T01:55:39;7.22;;;4.47;;
60344;SDS011;46188;52.324;8.032;2023-03-23T01:58:07;10.35;;;5.07;;
60344;SDS011;46188;52.324;8.032;2023-03-23T02:00:34;6.82;;;5.03;;
60344;SDS011;46188;52.324;8.032;2023-03-23T02:03:00;8.73;;;4.47;;
60344;SDS011;46188;52.324;8.032;2023-03-23T02:05:28;8.98;;;4.72;;
60344;SDS011;46188;52.324;8.032;2023-03-23T02:07:58;9.40;;;5.03;;
60344;SDS011;46188;52.324;8.032;2023-03-23T02:10:28;6.03;;;4.47;;
60344;SDS011;46188;52.324;8.032;2023-03-23T02:12:54;7.45;;;4.45;;
60344;SDS011;46188;52.324;8.032;2023-03-23T02:15:19;7.07;;;4.53;;
60344;SDS011;46188;52.324;8.032;2023-03-23T02:17:50;7.82;;;4.70;;
60344;SDS011;46188;52.324;8.032;2023-03-23T02:20:38;6.85;;;4.32;;
60344;SDS011;46188;52.324;8.032;2023-03-23T02:23:29;7.97;;;4.93;;
60344;SDS011;46188;52.324;8.032;2023-03-23T02:34:49;7.28;;;4.28;;
60344;SDS011;46188;52.324;8.032;2023-03-23T02:37:20;5.88;;;4.18;;
60344;SDS011;46188;52.324;8.032;2023-03-23T02:39:56;7.13;;;4.30;;
60344;SDS011;46188;52.324;8.032;2023-03-23T02:42:38;7.50;;;3.88;;
60344;SDS011;46188;52.324;8.032;2023-03-23T02:45:08;5.25;;;3.80;;
60344;SDS011;46188;52.324;8.032;2023-03-23T02:47:37;5.57;;;3.38;;
60344;SDS011;46188;52.324;8.032;2023-03-23T02:50:03;7.03;;;4.93;;
60344;SDS011;46188;52.324;8.032;2023-03-23T02:52:31;8.27;;;4.50;;
60344;SDS011;46188;52.324;8.032;2023-03-23T02:54:58;6.55;;;3.60;;
60344;SDS011;46188;52.324;8.032;2023-03-23T02:57:26;5.53;;;3.45;;
60344;SDS011;46188;52.324;8.032;2023-03-23T02:59:52;5.38;;;3.72;;
60344;SDS011;46188;52.324;8.032;2023-03-23T03:05:05;4.63;;;3.40;;
60344;SDS011;46188;52.324;8.032;2023-03-23T03:07:36;5.32;;;3.75;;
60344;SDS011;46188;52.324;8.032;2023-03-23T03:10:25;6.32;;;3.45;;
60344;SDS011;46188;52.324;8.032;2023-03-23T03:12:58;10.13;;;3.50;;
60344;SDS011;46188;52.324;8.032;2023-03-23T03:15:36;5.68;;;4.03;;
60344;SDS011;46188;52.324;8.032;2023-03-23T03:20:59;6.20;;;3.83;;
60344;SDS011;46188;52.324;8.032;2023-03-23T03:23:29;5.53;;;3.30;;
60344;SDS011;46188;52.324;8.032;2023-03-23T03:25:57;5.97;;;3.92;;
60344;SDS011;46188;52.324;8.032;2023-03-23T03:28:24;3.97;;;3.28;;
60344;SDS011;46188;52.324;8.032;2023-03-23T03:30:55;5.32;;;3.75;;
60344;SDS011;46188;52.324;8.032;2023-03-23T03:33:25;6.38;;;3.90;;
60344;SDS011;46188;52.324;8.032;2023-03-23T03:35:55;5.78;;;3.30;;
60344;SDS011;46188;52.324;8.032;2023-03-23T03:38:23;5.82;;;3.80;;
60344;SDS011;46188;52.324;8.032;2023-03-23T03:40:50;5.72;;;3.55;;
60344;SDS011;46188;52.324;8.032;2023-03-23T03:43:15;5.07;;;3.30;;
60344;SDS011;46188;52.324;8.032;2023-03-23T03:45:41;6.25;;;3.38;;
60344;SDS011;46188;52.324;8.032;2023-03-23T03:48:06;4.43;;;3.00;;
60344;SDS011;46188;52.324;8.032;2023-03-23T03:50:32;6.85;;;3.03;;
60344;SDS011;46188;52.324;8.032;2023-03-23T03:52:58;5.30;;;3.38;;
60344;SDS011;46188;52.324;8.032;2023-03-23T03:55:23;5.57;;;2.88;;
60344;SDS011;46188;52.324;8.032;2023-03-23T03:57:48;7.70;;;3.33;;
60344;SDS011;46188;52.324;8.032;2023-03-23T04:00:14;4.53;;;2.90;;
60344;SDS011;46188;52.324;8.032;2023-03-23T04:02:43;6.10;;;3.38;;
60344;SDS011;46188;52.324;8.032;2023-03-23T04:05:12;5.50;;;2.58;;
60344;SDS011;46188;52.324;8.032;2023-03-23T04:07:38;3.35;;;2.50;;
60344;SDS011;46188;52.324;8.032;2023-03-23T04:10:05;3.95;;;2.47;;
60344;SDS011;46188;52.324;8.032;2023-03-23T04:12:31;4.15;;;2.45;;
60344;SDS011;46188;52.324;8.032;2023-03-23T04:14:57;4.35;;;2.53;;
60344;SDS011;46188;52.324;8.032;2023-03-23T04:17:22;3.08;;;2.22;;
60344;SDS011;46188;52.324;8.032;2023-03-23T04:19:51;3.60;;;2.50;;
60344;SDS011;46188;52.324;8.032;2023-03-23T04:22:16;4.35;;;2.63;;
60344;SDS011;46188;52.324;8.032;2023-03-23T04:24:42;2.80;;;2.17;;
60344;SDS011;46188;52.324;8.032;2023-03-23T04:27:07;5.40;;;2.42;;
60344;SDS011;46188;52.324;8.032;2023-03-23T04:29:33;3.30;;;2.50;;
60344;SDS011;46188;52.324;8.032;2023-03-23T04:31:58;3.03;;;2.33;;
60344;SDS011;46188;52.324;8.032;2023-03-23T04:34:25;3.40;;;2.30;;
60344;SDS011;46188;52.324;8.032;2023-03-23T04:36:51;2.90;;;2.28;;
60344;SDS011;46188;52.324;8.032;2023-03-23T04:39:16;3.65;;;2.70;;
60344;SDS011;46188;52.324;8.032;2023-03-23T04:41:42;4.10;;;2.35;;
60344;SDS011;46188;52.324;8.032;2023-03-23T04:44:09;3.33;;;2.42;;
60344;SDS011;46188;52.324;8.032;2023-03-23T04:46:34;5.03;;;2.45;;
60344;SDS011;46188;52.324;8.032;2023-03-23T04:48:59;7.38;;;3.33;;
60344;SDS011;46188;52.324;8.032;2023-03-23T04:51:25;3.97;;;2.33;;
60344;SDS011;46188;52.324;8.032;2023-03-23T04:53:56;4.30;;;2.40;;
60344;SDS011;46188;52.324;8.032;2023-03-23T04:56:21;3.53;;;2.83;;
60344;SDS011;46188;52.324;8.032;2023-03-23T04:58:46;3.38;;;2.58;;
60344;SDS011;46188;52.324;8.032;2023-03-23T05:01:12;3.22;;;2.60;;
60344;SDS011;46188;52.324;8.032;2023-03-23T05:03:42;3.60;;;2.47;;
60344;SDS011;46188;52.324;8.032;2023-03-23T05:06:08;4.85;;;2.67;;
60344;SDS011;46188;52.324;8.032;2023-03-23T05:08:34;3.67;;;2.72;;
60344;SDS011;46188;52.324;8.032;2023-03-23T05:11:01;3.40;;;2.50;;
60344;SDS011;46188;52.324;8.032;2023-03-23T05:13:27;3.85;;;2.60;;
60344;SDS011;46188;52.324;8.032;2023-03-23T05:15:53;4.57;;;2.45;;
60344;SDS011;46188;52.324;8.032;2023-03-23T05:18:19;3.30;;;2.60;;
60344;SDS011;46188;52.324;8.032;2023-03-23T05:20:45;3.40;;;2.30;;
60344;SDS011;46188;52.324;8.032;2023-03-23T05:23:11;4.78;;;2.85;;
60344;SDS011;46188;52.324;8.032;2023-03-23T05:25:37;4.53;;;3.03;;
60344;SDS011;46188;52.324;8.032;2023-03-23T05:28:08;4.70;;;3.17;;
60344;SDS011;46188;52.324;8.032;2023-03-23T05:30:37;3.92;;;2.85;;
60344;SDS011;46188;52.324;8.032;2023-03-23T05:33:03;3.90;;;2.65;;
60344;SDS011;46188;52.324;8.032;2023-03-23T05:35:29;3.97;;;2.70;;
60344;SDS011;46188;52.324;8.032;2023-03-23T05:37:54;3.20;;;2.53;;
60344;SDS011;46188;52.324;8.032;2023-03-23T05:40:20;5.10;;;3.00;;
60344;SDS011;46188;52.324;8.032;2023-03-23T05:42:47;3.60;;;2.33;;
60344;SDS011;46188;52.324;8.032;2023-03-23T05:45:13;3.92;;;2.58;;
60344;SDS011;46188;52.324;8.032;2023-03-23T05:47:39;4.32;;;2.67;;
60344;SDS011;46188;52.324;8.032;2023-03-23T05:50:06;3.88;;;2.88;;
60344;SDS011;46188;52.324;8.032;2023-03-23T05:52:34;3.72;;;2.97;;
60344;SDS011;46188;52.324;8.032;2023-03-23T05:55:00;5.75;;;2.80;;
60344;SDS011;46188;52.324;8.032;2023-03-23T05:57:26;3.40;;;2.60;;
60344;SDS011;46188;52.324;8.032;2023-03-23T05:59:51;3.92;;;2.55;;
60344;SDS011;46188;52.324;8.032;2023-03-23T06:02:17;3.92;;;2.95;;
60344;SDS011;46188;52.324;8.032;2023-03-23T06:04:42;3.50;;;3.00;;
60344;SDS011;46188;52.324;8.032;2023-03-23T06:07:08;5.43;;;3.17;;
60344;SDS011;46188;52.324;8.032;2023-03-23T06:09:37;4.95;;;3.00;;
60344;SDS011;46188;52.324;8.032;2023-03-23T06:12:03;4.47;;;3.00;;
60344;SDS011;46188;52.324;8.032;2023-03-23T06:14:29;3.65;;;2.70;;
60344;SDS011;46188;52.324;8.032;2023-03-23T06:16:54;4.30;;;2.90;;
60344;SDS011;46188;52.324;8.032;2023-03-23T06:19:20;4.07;;;3.00;;
60344;SDS011;46188;52.324;8.032;2023-03-23T06:21:45;4.88;;;3.00;;
60344;SDS011;46188;52.324;8.032;2023-03-23T06:24:10;4.38;;;2.97;;
60344;SDS011;46188;52.324;8.032;2023-03-23T06:26:37;4.72;;;2.72;;
60344;SDS011;46188;52.324;8.032;2023-03-23T06:29:03;5.03;;;3.10;;
60344;SDS011;46188;52.324;8.032;2023-03-23T06:31:36;5.18;;;3.15;;
60344;SDS011;46188;52.324;8.032;2023-03-23T06:34:03;3.25;;;2.72;;
60344;SDS011;46188;52.324;8.032;2023-03-23T06:36:28;4.32;;;3.08;;
60344;SDS011;46188;52.324;8.032;2023-03-23T06:38:54;4.25;;;2.92;;
60344;SDS011;46188;52.324;8.032;2023-03-23T06:41:20;4.38;;;2.85;;
60344;SDS011;46188;52.324;8.032;2023-03-23T06:43:46;4.03;;;2.60;;
60344;SDS011;46188;52.324;8.032;2023-03-23T06:46:11;3.70;;;2.50;;
60344;SDS011;46188;52.324;8.032;2023-03-23T06:48:36;4.55;;;2.60;;
60344;SDS011;46188;52.324;8.032;2023-03-23T06:51:03;5.18;;;2.95;;
60344;SDS011;46188;52.324;8.032;2023-03-23T06:53:29;5.53;;;2.95;;
60344;SDS011;46188;52.324;8.032;2023-03-23T06:55:54;5.38;;;2.85;;
60344;SDS011;46188;52.324;8.032;2023-03-23T06:58:20;4.20;;;2.88;;
60344;SDS011;46188;52.324;8.032;2023-03-23T07:00:46;3.85;;;2.67;;
60344;SDS011;46188;52.324;8.032;2023-03-23T07:03:11;6.03;;;3.45;;
60344;SDS011;46188;52.324;8.032;2023-03-23T07:05:37;5.63;;;2.83;;
60344;SDS011;46188;52.324;8.032;2023-03-23T07:08:03;3.88;;;2.70;;
60344;SDS011;46188;52.324;8.032;2023-03-23T07:10:28;4.78;;;3.00;;
60344;SDS011;46188;52.324;8.032;2023-03-23T07:12:54;5.00;;;2.80;;
60344;SDS011;46188;52.324;8.032;2023-03-23T07:15:19;4.57;;;2.95;;
60344;SDS011;46188;52.324;8.032;2023-03-23T07:17:44;3.67;;;2.60;;
60344;SDS011;46188;52.324;8.032;2023-03-23T07:20:10;3.67;;;2.60;;
60344;SDS011;46188;52.324;8.032;2023-03-23T07:22:36;5.70;;;2.63;;
60344;SDS011;46188;52.324;8.032;2023-03-23T07:25:01;4.90;;;2.72;;
60344;SDS011;46188;52.324;8.032;2023-03-23T07:27:27;5.88;;;3.20;;
60344;SDS011;46188;52.324;8.032;2023-03-23T07:29:52;6.15;;;2.80;;
60344;SDS011;46188;52.324;8.032;2023-03-23T07:32:17;5.45;;;2.50;;
60344;SDS011;46188;52.324;8.032;2023-03-23T07:34:43;5.15;;;2.65;;
60344;SDS011;46188;52.324;8.032;2023-03-23T07:37:08;4.13;;;2.83;;
60344;SDS011;46188;52.324;8.032;2023-03-23T07:39:34;4.13;;;2.67;;
60344;SDS011;46188;52.324;8.032;2023-03-23T07:42:00;4.80;;;3.00;;
60344;SDS011;46188;52.324;8.032;2023-03-23T07:44:25;4.63;;;2.90;;
60344;SDS011;46188;52.324;8.032;2023-03-23T07:46:51;5.53;;;3.17;;
60344;SDS011;46188;52.324;8.032;2023-03-23T07:49:16;7.10;;;2.80;;
60344;SDS011;46188;52.324;8.032;2023-03-23T07:51:42;5.88;;;2.80;;
60344;SDS011;46188;52.324;8.032;2023-03-23T07:54:08;5.25;;;2.55;;
60344;SDS011;46188;52.324;8.032;2023-03-23T07:56:34;6.10;;;2.97;;
60344;SDS011;46188;52.324;8.032;2023-03-23T07:59:00;5.05;;;2.83;;
60344;SDS011;46188;52.324;8.032;2023-03-23T08:01:27;8.30;;;3.33;;
60344;SDS011;46188;52.324;8.032;2023-03-23T08:03:53;5.30;;;3.10;;
60344;SDS011;46188;52.324;8.032;2023-03-23T08:06:21;5.88;;;3.53;;
60344;SDS011;46188;52.324;8.032;2023-03-23T08:08:47;3.88;;;2.67;;
60344;SDS011;46188;52.324;8.032;2023-03-23T08:11:12;5.13;;;3.13;;
60344;SDS011;46188;52.324;8.032;2023-03-23T08:13:40;6.07;;;2.92;;
60344;SDS011;46188;52.324;8.032;2023-03-23T08:16:05;4.97;;;3.05;;
60344;SDS011;46188;52.324;8.032;2023-03-23T08:18:31;8.35;;;3.75;;
60344;SDS011;46188;52.324;8.032;2023-03-23T08:20:56;4.45;;;3.15;;
60344;SDS011;46188;52.324;8.032;2023-03-23T08:23:22;5.75;;;2.80;;
60344;SDS011;46188;52.324;8.032;2023-03-23T08:25:48;4.70;;;2.70;;
60344;SDS011;46188;52.324;8.032;2023-03-23T08:28:13;5.38;;;3.30;;
60344;SDS011;46188;52.324;8.032;2023-03-23T08:30:39;4.93;;;2.75;;
60344;SDS011;46188;52.324;8.032;2023-03-23T08:33:05;5.53;;;2.83;;
60344;SDS011;46188;52.324;8.032;2023-03-23T08:35:31;3.80;;;2.42;;
60344;SDS011;46188;52.324;8.032;2023-03-23T08:37:57;4.32;;;3.00;;
60344;SDS011;46188;52.324;8.032;2023-03-23T08:40:23;8.65;;;3.15;;
60344;SDS011;46188;52.324;8.032;2023-03-23T08:42:49;6.20;;;2.97;;
60344;SDS011;46188;52.324;8.032;2023-03-23T08:45:17;8.27;;;3.00;;
60344;SDS011;46188;52.324;8.032;2023-03-23T08:47:45;6.53;;;3.22;;
60344;SDS011;46188;52.324;8.032;2023-03-23T08:50:15;5.30;;;3.17;;
60344;SDS011;46188;52.324;8.032;2023-03-23T08:52:43;8.15;;;2.95;;
60344;SDS011;46188;52.324;8.032;2023-03-23T08:55:08;8.82;;;4.43;;
60344;SDS011;46188;52.324;8.032;2023-03-23T08:57:34;5.60;;;2.83;;
60344;SDS011;46188;52.324;8.032;2023-03-23T09:00:01;5.43;;;2.80;;
60344;SDS011;46188;52.324;8.032;2023-03-23T09:02:38;8.02;;;3.63;;
60344;SDS011;46188;52.324;8.032;2023-03-23T09:05:05;4.57;;;2.65;;
60344;SDS011;46188;52.324;8.032;2023-03-23T09:07:31;5.95;;;2.88;;
60344;SDS011;46188;52.324;8.032;2023-03-23T09:09:57;7.60;;;2.42;;
60344;SDS011;46188;52.324;8.032;2023-03-23T09:12:22;6.82;;;2.60;;
60344;SDS011;46188;52.324;8.032;2023-03-23T09:14:48;4.70;;;2.42;;
60344;SDS011;46188;52.324;8.032;2023-03-23T09:17:13;7.88;;;2.40;;
60344;SDS011;46188;52.324;8.032;2023-03-23T09:19:39;7.68;;;3.03;;
60344;SDS011;46188;52.324;8.032;2023-03-23T09:22:04;5.38;;;2.33;;
60344;SDS011;46188;52.324;8.032;2023-03-23T09:24:30;4.90;;;2.70;;
60344;SDS011;46188;52.324;8.032;2023-03-23T09:26:56;10.60;;;3.90;;
60344;SDS011;46188;52.324;8.032;2023-03-23T09:29:23;5.97;;;2.63;;
60344;SDS011;46188;52.324;8.032;2023-03-23T09:31:49;5.32;;;2.60;;
60344;SDS011;46188;52.324;8.032;2023-03-23T09:34:14;7.60;;;2.42;;
60344;SDS011;46188;52.324;8.032;2023-03-23T09:36:43;6.50;;;2.97;;
60344;SDS011;46188;52.324;8.032;2023-03-23T09:39:08;5.72;;;2.50;;
60344;SDS011;46188;52.324;8.032;2023-03-23T09:47:00;5.78;;;2.28;;
60344;SDS011;46188;52.324;8.032;2023-03-23T09:49:33;4.50;;;2.20;;
60344;SDS011;46188;52.324;8.032;2023-03-23T09:52:14;4.95;;;1.60;;
60344;SDS011;46188;52.324;8.032;2023-03-23T09:54:46;5.13;;;1.40;;
60344;SDS011;46188;52.324;8.032;2023-03-23T09:57:16;2.57;;;0.97;;
60344;SDS011;46188;52.324;8.032;2023-03-23T10:00:10;2.38;;;0.80;;
60344;SDS011;46188;52.324;8.032;2023-03-23T10:07:57;2.05;;;1.00;;
60344;SDS011;46188;52.324;8.032;2023-03-23T10:10:36;3.28;;;2.00;;
60344;SDS011;46188;52.324;8.032;2023-03-23T10:13:14;7.35;;;3.10;;
60344;SDS011;46188;52.324;8.032;2023-03-23T10:16:07;4.60;;;2.10;;
60344;SDS011;46188;52.324;8.032;2023-03-23T10:18:38;2.92;;;1.60;;
60344;SDS011;46188;52.324;8.032;2023-03-23T10:21:19;3.40;;;1.20;;
60344;SDS011;46188;52.324;8.032;2023-03-23T10:26:26;2.53;;;1.63;;
60344;SDS011;46188;52.324;8.032;2023-03-23T10:31:36;3.43;;;1.63;;
60344;SDS011;46188;52.324;8.032;2023-03-23T10:34:08;1.80;;;0.90;;
60344;SDS011;46188;52.324;8.032;2023-03-23T10:36:54;3.13;;;1.50;;
60344;SDS011;46188;52.324;8.032;2023-03-23T10:39:26;4.30;;;1.38;;
60344;SDS011;46188;52.324;8.032;2023-03-23T10:41:56;2.65;;;1.35;;
60344;SDS011;46188;52.324;8.032;2023-03-23T10:44:27;3.08;;;1.20;;
60344;SDS011;46188;52.324;8.032;2023-03-23T10:47:15;3.97;;;1.60;;
60344;SDS011;46188;52.324;8.032;2023-03-23T10:49:41;3.10;;;0.93;;
60344;SDS011;46188;52.324;8.032;2023-03-23T10:52:22;4.57;;;0.98;;
60344;SDS011;46188;52.324;8.032;2023-03-23T10:54:57;2.78;;;1.75;;
60344;SDS011;46188;52.324;8.032;2023-03-23T10:57:27;3.45;;;0.90;;
60344;SDS011;46188;52.324;8.032;2023-03-23T10:59:59;1.45;;;1.00;;
60344;SDS011;46188;52.324;8.032;2023-03-23T11:02:30;5.13;;;1.10;;
60344;SDS011;46188;52.324;8.032;2023-03-23T11:04:59;1.85;;;1.00;;
60344;SDS011;46188;52.324;8.032;2023-03-23T11:07:27;3.20;;;1.30;;
60344;SDS011;46188;52.324;8.032;2023-03-23T11:09:55;2.92;;;1.20;;
60344;SDS011;46188;52.324;8.032;2023-03-23T11:12:28;3.00;;;1.15;;
60344;SDS011;46188;52.324;8.032;2023-03-23T11:15:03;4.22;;;0.90;;
60344;SDS011;46188;52.324;8.032;2023-03-23T11:17:40;1.63;;;0.90;;
60344;SDS011;46188;52.324;8.032;2023-03-23T11:20:10;2.78;;;1.27;;
60344;SDS011;46188;52.324;8.032;2023-03-23T11:22:37;7.03;;;2.55;;
60344;SDS011;46188;52.324;8.032;2023-03-23T11:25:03;2.78;;;1.13;;
60344;SDS011;46188;52.324;8.032;2023-03-23T11:27:30;5.25;;;1.85;;
60344;SDS011;46188;52.324;8.032;2023-03-23T11:30:07;2.53;;;1.15;;
60344;SDS011;46188;52.324;8.032;2023-03-23T11:32:34;2.92;;;1.05;;
60344;SDS011;46188;52.324;8.032;2023-03-23T11:35:03;3.97;;;1.05;;
60344;SDS011;46188;52.324;8.032;2023-03-23T11:37:41;4.18;;;0.80;;
60344;SDS011;46188;52.324;8.032;2023-03-23T11:42:43;3.30;;;0.85;;
60344;SDS011;46188;52.324;8.032;2023-03-23T11:45:16;4.78;;;1.10;;
60344;SDS011;46188;52.324;8.032;2023-03-23T11:50:52;3.45;;;0.90;;
60344;SDS011;46188;52.324;8.032;2023-03-23T11:53:42;2.25;;;0.95;;
60344;SDS011;46188;52.324;8.032;2023-03-23T11:56:34;2.17;;;0.68;;
60344;SDS011;46188;52.324;8.032;2023-03-23T11:59:02;2.70;;;0.70;;
60344;SDS011;46188;52.324;8.032;2023-03-23T12:12:45;4.80;;;1.20;;
60344;SDS011;46188;52.324;8.032;2023-03-23T12:15:25;3.17;;;0.90;;
60344;SDS011;46188;52.324;8.032;2023-03-23T12:18:00;4.18;;;0.80;;
60344;SDS011;46188;52.324;8.032;2023-03-23T12:20:36;5.43;;;1.00;;
60344;SDS011;46188;52.324;8.032;2023-03-23T12:28:49;3.75;;;1.02;;
60344;SDS011;46188;52.324;8.032;2023-03-23T12:34:26;3.47;;;1.30;;
60344;SDS011;46188;52.324;8.032;2023-03-23T12:37:18;3.53;;;1.50;;
60344;SDS011;46188;52.324;8.032;2023-03-23T12:40:02;3.28;;;1.23;;
60344;SDS011;46188;52.324;8.032;2023-03-23T12:42:36;2.35;;;1.00;;
60344;SDS011;46188;52.324;8.032;2023-03-23T12:48:12;2.88;;;1.10;;
60344;SDS011;46188;52.324;8.032;2023-03-23T12:50:46;2.90;;;1.10;;
60344;SDS011;46188;52.324;8.032;2023-03-23T12:53:28;4.68;;;1.17;;
60344;SDS011;46188;52.324;8.032;2023-03-23T12:58:56;3.33;;;1.35;;
60344;SDS011;46188;52.324;8.032;2023-03-23T13:01:29;3.53;;;1.13;;
60344;SDS011;46188;52.324;8.032;2023-03-23T13:04:08;9.90;;;1.40;;
60344;SDS011;46188;52.324;8.032;2023-03-23T13:06:39;2.20;;;0.95;;
60344;SDS011;46188;52.324;8.032;2023-03-23T13:11:54;2.25;;;0.90;;
60344;SDS011;46188;52.324;8.032;2023-03-23T13:14:37;1.95;;;1.13;;
60344;SDS011;46188;52.324;8.032;2023-03-23T13:20:31;3.50;;;1.20;;
60344;SDS011;46188;52.324;8.032;2023-03-23T13:26:05;4.32;;;1.20;;
60344;SDS011;46188;52.324;8.032;2023-03-23T13:28:48;3.83;;;1.02;;
60344;SDS011;46188;52.324;8.032;2023-03-23T13:31:27;3.20;;;1.20;;
60344;SDS011;46188;52.324;8.032;2023-03-23T13:36:45;3.30;;;1.15;;
60344;SDS011;46188;52.324;8.032;2023-03-23T13:39:28;2.70;;;1.23;;
60344;SDS011;46188;52.324;8.032;2023-03-23T13:50:00;2.33;;;1.00;;
60344;SDS011;46188;52.324;8.032;2023-03-23T14:05:42;2.05;;;1.02;;
60344;SDS011;46188;52.324;8.032;2023-03-23T14:08:36;3.78;;;1.48;;
60344;SDS011;46188;52.324;8.032;2023-03-23T14:11:10;3.83;;;1.40;;
60344;SDS011;46188;52.324;8.032;2023-03-23T14:18:50;2.28;;;1.40;;
60344;SDS011;46188;52.324;8.032;2023-03-23T14:21:16;3.97;;;1.35;;
60344;SDS011;46188;52.324;8.032;2023-03-23T14:23:49;2.22;;;1.20;;
60344;SDS011;46188;52.324;8.032;2023-03-23T14:26:16;3.53;;;1.70;;
60344;SDS011;46188;52.324;8.032;2023-03-23T14:28:44;3.10;;;1.48;;
60344;SDS011;46188;52.324;8.032;2023-03-23T14:31:22;5.90;;;1.58;;
60344;SDS011;46188;52.324;8.032;2023-03-23T14:33:50;2.80;;;1.20;;
60344;SDS011;46188;52.324;8.032;2023-03-23T14:36:24;2.53;;;1.38;;
60344;SDS011;46188;52.324;8.032;2023-03-23T14:38:58;3.47;;;1.40;;
60344;SDS011;46188;52.324;8.032;2023-03-23T14:41:30;2.63;;;1.48;;
60344;SDS011;46188;52.324;8.032;2023-03-23T14:43:56;3.45;;;1.30;;
60344;SDS011;46188;52.324;8.032;2023-03-23T14:46:21;2.08;;;1.20;;
60344;SDS011;46188;52.324;8.032;2023-03-23T14:48:49;3.60;;;1.80;;
60344;SDS011;46188;52.324;8.032;2023-03-23T14:51:17;3.00;;;1.42;;
60344;SDS011;46188;52.324;8.032;2023-03-23T14:53:43;2.50;;;1.30;;
60344;SDS011;46188;52.324;8.032;2023-03-23T14:56:13;4.50;;;1.60;;
60344;SDS011;46188;52.324;8.032;2023-03-23T14:58:44;4.28;;;1.38;;
60344;SDS011;46188;52.324;8.032;2023-03-23T15:01:10;3.17;;;1.63;;
60344;SDS011;46188;52.324;8.032;2023-03-23T15:03:41;4.32;;;1.88;;
60344;SDS011;46188;52.324;8.032;2023-03-23T15:06:14;5.10;;;2.63;;
60344;SDS011;46188;52.324;8.032;2023-03-23T15:08:43;3.83;;;1.98;;
60344;SDS011;46188;52.324;8.032;2023-03-23T15:13:47;12.38;;;2.45;;
60344;SDS011;46188;52.324;8.032;2023-03-23T15:16:21;4.78;;;2.35;;
60344;SDS011;46188;52.324;8.032;2023-03-23T15:19:01;3.45;;;2.35;;
60344;SDS011;46188;52.324;8.032;2023-03-23T15:24:33;3.83;;;2.50;;
60344;SDS011;46188;52.324;8.032;2023-03-23T15:27:12;4.32;;;2.60;;
60344;SDS011;46188;52.324;8.032;2023-03-23T15:29:54;4.70;;;2.60;;
60344;SDS011;46188;52.324;8.032;2023-03-23T15:32:26;3.90;;;2.50;;
60344;SDS011;46188;52.324;8.032;2023-03-23T15:34:56;4.63;;;2.83;;
60344;SDS011;46188;52.324;8.032;2023-03-23T15:37:27;4.63;;;4.07;;
60344;SDS011;46188;52.324;8.032;2023-03-23T15:39:55;3.78;;;1.45;;
60344;SDS011;46188;52.324;8.032;2023-03-23T15:42:29;2.65;;;1.17;;
60344;SDS011;46188;52.324;8.032;2023-03-23T15:45:06;5.82;;;1.42;;
60344;SDS011;46188;52.324;8.032;2023-03-23T15:47:52;3.40;;;1.42;;
60344;SDS011;46188;52.324;8.032;2023-03-23T15:52:53;4.13;;;1.10;;
60344;SDS011;46188;52.324;8.032;2023-03-23T15:55:27;2.70;;;1.10;;
60344;SDS011;46188;52.324;8.032;2023-03-23T15:57:56;3.40;;;0.90;;
60344;SDS011;46188;52.324;8.032;2023-03-23T16:00:25;1.85;;;0.80;;
60344;SDS011;46188;52.324;8.032;2023-03-23T16:02:53;0.73;;;0.60;;
60344;SDS011;46188;52.324;8.032;2023-03-23T16:05:21;1.52;;;0.73;;
60344;SDS011;46188;52.324;8.032;2023-03-23T16:07:47;1.80;;;0.82;;
60344;SDS011;46188;52.324;8.032;2023-03-23T16:10:14;3.97;;;0.75;;
60344;SDS011;46188;52.324;8.032;2023-03-23T16:12:43;2.20;;;1.00;;
60344;SDS011;46188;52.324;8.032;2023-03-23T16:15:09;1.70;;;0.90;;
60344;SDS011;46188;52.324;8.032;2023-03-23T16:17:35;2.55;;;1.10;;
60344;SDS011;46188;52.324;8.032;2023-03-23T16:20:00;2.47;;;1.40;;
60344;SDS011;46188;52.324;8.032;2023-03-23T16:22:27;2.42;;;1.40;;
60344;SDS011;46188;52.324;8.032;2023-03-23T16:24:52;2.38;;;1.52;;
60344;SDS011;46188;52.324;8.032;2023-03-23T16:27:18;3.83;;;1.35;;
60344;SDS011;46188;52.324;8.032;2023-03-23T16:29:45;4.63;;;1.60;;
60344;SDS011;46188;52.324;8.032;2023-03-23T16:32:10;4.85;;;2.00;;
60344;SDS011;46188;52.324;8.032;2023-03-23T16:34:35;6.07;;;2.20;;
60344;SDS011;46188;52.324;8.032;2023-03-23T16:37:02;3.33;;;2.40;;
60344;SDS011;46188;52.324;8.032;2023-03-23T16:39:27;3.80;;;2.20;;
60344;SDS011;46188;52.324;8.032;2023-03-23T16:41:52;6.80;;;2.70;;
60344;SDS011;46188;52.324;8.032;2023-03-23T16:44:18;4.90;;;2.47;;
60344;SDS011;46188;52.324;8.032;2023-03-23T16:46:43;4.57;;;2.85;;
60344;SDS011;46188;52.324;8.032;2023-03-23T16:49:08;4.65;;;3.25;;
60344;SDS011;46188;52.324;8.032;2023-03-23T16:51:34;3.85;;;2.78;;